KCOF/COF METAR and TAF weather

Enter ICAO airport designator
Station Type Date Time Source
KCOF METAR 2022/12/04 10:55 UTC NOAA

KCOF 041055Z AUTO 34006KT 10SM CLR 21/19 A3015 RMK AO2 SLP214 T02050191 $


Station Type Date Time Source
KCOF Decoded METAR 2022/12/04 10:55 UTC NOAA

Cocoa / Patrick Air Force Base, FL, United States (KCOF) 28-14N 080-36W 3M
Dec 04, 2022 - 05:55 AM EST / 2022.12.04 1055 UTC
Wind: from the NNW (340 degrees) at 7 MPH (6 KT):0
Visibility: 10 mile(s):0
Sky conditions: clear
Temperature: 68.9 F (20.5 C)
Dew Point: 66.4 F (19.1 C)
Relative Humidity: 91%
Pressure (altimeter): 30.15 in. Hg (1020 hPa)
ob: KCOF 041055Z AUTO 34006KT 10SM CLR 21/19 A3015 RMK AO2 SLP214 T02050191
cycle: 11

Station Type Date Time Source
KCOF TAF 2022/12/03 17:32 UTC NOAA

TAF
AMD KCOF 031726Z 0317/0419 12008KT 9999 FEW040 SCT070 QNH3020INS
BECMG 0401/0402 05012KT 9999 FEW030 SCT050 QNH3018INS
BECMG 0409/0410 35010G15KT 9999 FEW040 SCT090 QNH3014INS TX27/0318Z TN20/0410Z LAST NO
AMDS AFT 0319 NEXT 0419

Example: see airport list